createdAt,value
2022-12-18T00:01:22.408Z,26.08
2022-12-18T00:03:49.150Z,26.10
2022-12-18T00:06:16.642Z,24.80
2022-12-18T00:08:44.303Z,26.25
2022-12-18T00:11:20.094Z,26.10
2022-12-18T00:13:47.213Z,25.33
2022-12-18T00:16:16.551Z,25.25
2022-12-18T00:18:43.641Z,26.33
2022-12-18T00:21:12.433Z,24.73
2022-12-18T00:23:40.620Z,24.40
2022-12-18T00:26:15.939Z,24.20
2022-12-18T00:28:43.401Z,25.10
2022-12-18T00:31:15.604Z,25.63
2022-12-18T00:33:42.426Z,22.75
2022-12-18T00:36:15.434Z,23.63
2022-12-18T00:38:42.599Z,24.13
2022-12-18T00:41:11.153Z,25.60
2022-12-18T00:43:39.566Z,25.33
2022-12-18T00:46:06.694Z,24.45
2022-12-18T00:48:33.745Z,25.33
2022-12-18T00:51:00.259Z,23.65
2022-12-18T00:53:26.868Z,23.60
2022-12-18T00:55:53.317Z,23.17
2022-12-18T00:58:19.877Z,24.08
2022-12-18T01:00:46.446Z,23.77
2022-12-18T01:03:16.270Z,24.38
2022-12-18T01:05:43.554Z,23.95
2022-12-18T01:08:10.498Z,23.77
2022-12-18T01:10:37.054Z,23.70
2022-12-18T01:13:03.586Z,24.08
2022-12-18T01:15:30.089Z,23.15
2022-12-18T01:17:56.660Z,23.58
2022-12-18T01:20:23.198Z,24.92
2022-12-18T01:22:49.705Z,24.60
2022-12-18T01:25:16.345Z,23.67
2022-12-18T01:27:42.828Z,22.63
2022-12-18T01:30:09.769Z,24.75
2022-12-18T01:32:36.296Z,24.15
2022-12-18T01:35:03.153Z,23.83
2022-12-18T01:37:29.812Z,21.88
2022-12-18T01:39:56.522Z,22.85
2022-12-18T01:42:23.060Z,23.63
2022-12-18T01:45:00.249Z,24.05
2022-12-18T01:47:45.575Z,23.80
2022-12-18T01:50:28.119Z,22.33
2022-12-18T01:53:03.862Z,23.52
2022-12-18T01:55:36.109Z,22.30
2022-12-18T01:58:03.167Z,23.13
2022-12-18T02:00:30.889Z,23.17
2022-12-18T02:02:57.803Z,23.83
2022-12-18T02:05:50.313Z,22.38
2022-12-18T02:08:34.906Z,22.00
2022-12-18T02:11:11.919Z,22.70
2022-12-18T02:13:54.566Z,22.63
2022-12-18T02:16:36.389Z,23.42
2022-12-18T02:19:16.517Z,22.90
2022-12-18T02:21:52.248Z,23.83
2022-12-18T02:24:30.563Z,23.15
2022-12-18T02:27:07.579Z,21.58
2022-12-18T02:29:39.997Z,23.90
2022-12-18T02:32:11.442Z,23.45
2022-12-18T02:34:39.999Z,23.73
2022-12-18T02:37:17.116Z,23.92
2022-12-18T02:39:47.140Z,22.02
2022-12-18T02:42:14.598Z,23.63
2022-12-18T02:44:47.081Z,24.92
2022-12-18T02:47:15.813Z,23.30
2022-12-18T02:50:08.743Z,22.23
2022-12-18T02:52:49.232Z,21.95
2022-12-18T02:55:49.843Z,22.00
2022-12-18T02:58:31.555Z,22.83
2022-12-18T03:01:24.226Z,23.38
2022-12-18T03:03:58.797Z,22.60
2022-12-18T03:06:31.060Z,23.70
2022-12-18T03:09:02.089Z,25.50
2022-12-18T03:11:52.572Z,23.60
2022-12-18T03:14:21.704Z,23.05
2022-12-18T03:16:53.546Z,23.45
2022-12-18T03:19:24.960Z,22.77
2022-12-18T03:21:55.548Z,22.23
2022-12-18T03:24:23.786Z,22.52
2022-12-18T03:26:55.751Z,22.58
2022-12-18T03:29:39.150Z,24.00
2022-12-18T03:32:11.534Z,20.25
2022-12-18T03:34:41.429Z,20.52
2022-12-18T03:37:08.468Z,23.23
2022-12-18T03:39:36.232Z,22.35
2022-12-18T03:42:05.702Z,22.75
2022-12-18T03:44:59.796Z,20.52
2022-12-18T03:47:46.838Z,20.17
2022-12-18T03:50:19.356Z,20.73
2022-12-18T03:53:07.057Z,23.40
2022-12-18T03:55:36.352Z,22.58
2022-12-18T03:58:07.240Z,20.73
2022-12-18T04:00:35.655Z,21.67
2022-12-18T04:03:04.836Z,21.23
2022-12-18T04:05:33.155Z,22.45
2022-12-18T04:07:59.997Z,21.10
2022-12-18T04:10:26.573Z,20.02
2022-12-18T04:12:57.545Z,20.23
2022-12-18T04:15:24.958Z,18.50
2022-12-18T04:17:51.640Z,19.58
2022-12-18T04:20:18.797Z,20.13
2022-12-18T04:22:45.498Z,19.35
2022-12-18T04:25:13.138Z,20.30
2022-12-18T04:27:39.896Z,21.25
2022-12-18T04:30:07.125Z,19.88
2022-12-18T04:32:35.013Z,19.58
2022-12-18T04:35:01.574Z,20.50
2022-12-18T04:37:28.014Z,19.13
2022-12-18T04:39:54.622Z,17.73
2022-12-18T04:42:21.090Z,17.73
2022-12-18T04:44:47.681Z,21.30
2022-12-18T04:47:14.162Z,19.98
2022-12-18T04:49:40.728Z,19.23
2022-12-18T04:52:07.800Z,21.35
2022-12-18T04:54:34.272Z,18.70
2022-12-18T04:57:00.726Z,19.63
2022-12-18T04:59:27.286Z,19.00
2022-12-18T05:01:54.107Z,20.58
2022-12-18T05:04:20.729Z,18.88
2022-12-18T05:06:47.285Z,20.55
2022-12-18T05:09:14.720Z,18.35
2022-12-18T05:11:41.305Z,20.23
2022-12-18T05:14:07.750Z,19.50
2022-12-18T05:16:34.875Z,18.65
2022-12-18T05:19:01.367Z,19.33
2022-12-18T05:21:27.775Z,18.67
2022-12-18T05:23:54.234Z,17.83
2022-12-18T05:26:20.775Z,19.17
2022-12-18T05:28:47.252Z,19.77
2022-12-18T05:31:14.395Z,18.23
2022-12-18T05:33:41.436Z,19.27
2022-12-18T05:36:09.722Z,18.48
2022-12-18T05:38:38.208Z,18.52
2022-12-18T05:41:05.568Z,18.90
2022-12-18T05:43:34.398Z,17.48
2022-12-18T05:46:05.309Z,17.73
2022-12-18T05:48:31.804Z,18.95
2022-12-18T05:51:05.894Z,18.88
2022-12-18T05:53:32.523Z,17.98
2022-12-18T05:56:02.499Z,19.30
2022-12-18T05:58:29.013Z,19.67
2022-12-18T06:00:55.521Z,18.45
2022-12-18T06:03:22.011Z,16.98
2022-12-18T06:05:48.770Z,18.17
2022-12-18T06:08:15.277Z,17.60
2022-12-18T06:10:42.353Z,17.75
2022-12-18T06:13:09.000Z,17.90
2022-12-18T06:15:38.568Z,18.35
2022-12-18T06:18:05.237Z,17.73
2022-12-18T06:20:33.596Z,17.85
2022-12-18T06:23:00.977Z,17.83
2022-12-18T06:25:27.448Z,18.90
2022-12-18T06:27:53.972Z,19.20
2022-12-18T06:30:20.789Z,16.60
2022-12-18T06:32:54.705Z,17.83
2022-12-18T06:35:23.018Z,16.70
2022-12-18T06:37:49.522Z,16.27
2022-12-18T06:40:15.949Z,18.27
2022-12-18T06:42:42.374Z,18.70
2022-12-18T06:45:09.463Z,15.43
2022-12-18T06:47:35.932Z,19.52
2022-12-18T06:50:02.401Z,17.20
2022-12-18T06:52:28.877Z,16.92
2022-12-18T06:54:55.323Z,16.70
2022-12-18T06:57:22.032Z,17.75
2022-12-18T06:59:48.480Z,16.65
2022-12-18T07:02:15.507Z,16.92
2022-12-18T07:04:42.038Z,18.17
2022-12-18T07:07:08.537Z,17.90
2022-12-18T07:09:35.004Z,17.42
2022-12-18T07:12:01.466Z,17.10
2022-12-18T07:14:27.929Z,18.42
2022-12-18T07:16:54.621Z,16.60
2022-12-18T07:19:21.293Z,18.17
2022-12-18T07:21:47.726Z,17.05
2022-12-18T07:24:14.200Z,17.73
2022-12-18T07:26:40.692Z,17.20
2022-12-18T07:29:07.115Z,17.70
2022-12-18T07:31:33.544Z,17.77
2022-12-18T07:34:00.047Z,18.58
2022-12-18T07:36:26.556Z,17.30
2022-12-18T07:38:53.888Z,18.67
2022-12-18T07:41:21.045Z,17.38
2022-12-18T07:43:48.007Z,16.23
2022-12-18T07:46:16.033Z,17.33
2022-12-18T07:48:49.917Z,18.90
2022-12-18T07:51:17.957Z,17.38
2022-12-18T07:53:45.226Z,17.95
2022-12-18T07:56:30.467Z,17.35
2022-12-18T07:58:58.711Z,17.40
2022-12-18T08:01:25.558Z,20.17
2022-12-18T08:03:52.728Z,18.10
2022-12-18T08:06:22.504Z,18.13
2022-12-18T08:08:52.617Z,17.42
2022-12-18T08:11:19.078Z,18.88
2022-12-18T08:13:46.209Z,17.35
2022-12-18T08:16:12.860Z,20.15
2022-12-18T08:18:39.373Z,20.30
2022-12-18T08:21:13.654Z,20.08
2022-12-18T08:23:42.983Z,17.52
2022-12-18T08:26:11.030Z,17.05
2022-12-18T08:28:37.573Z,18.00
2022-12-18T08:31:05.036Z,19.33
2022-12-18T08:33:31.785Z,17.25
2022-12-18T08:36:00.383Z,16.38
2022-12-18T08:38:26.920Z,16.38
2022-12-18T08:41:25.668Z,16.65
2022-12-18T08:44:10.931Z,16.58
2022-12-18T08:46:40.845Z,17.40
2022-12-18T08:49:08.765Z,18.52
2022-12-18T08:51:36.602Z,19.27
2022-12-18T08:54:04.130Z,18.90
2022-12-18T08:56:33.001Z,20.85
2022-12-18T08:58:59.612Z,21.70
2022-12-18T09:01:26.395Z,19.75
2022-12-18T09:03:53.006Z,20.10
2022-12-18T09:06:21.806Z,19.98
2022-12-18T09:08:48.383Z,22.30
2022-12-18T09:11:19.915Z,20.65
2022-12-18T09:13:46.340Z,20.88
2022-12-18T09:16:12.926Z,22.75
2022-12-18T09:18:39.699Z,23.52
2022-12-18T09:21:14.716Z,21.92
2022-12-18T09:23:41.899Z,20.85
2022-12-18T09:26:08.864Z,22.23
2022-12-18T09:28:35.615Z,22.10
2022-12-18T09:31:08.258Z,20.98
2022-12-18T09:33:38.170Z,20.33
2022-12-18T09:36:07.716Z,21.05
2022-12-18T09:38:35.803Z,23.00
2022-12-18T09:41:38.061Z,23.20
2022-12-18T09:44:29.918Z,23.08
2022-12-18T09:47:08.589Z,20.70
2022-12-18T09:49:42.169Z,20.05
2022-12-18T09:54:58.911Z,20.98
2022-12-18T09:57:26.637Z,20.13
2022-12-18T09:59:57.754Z,20.05
2022-12-18T10:02:27.382Z,21.85
2022-12-18T10:05:05.179Z,19.17
2022-12-18T10:07:48.592Z,19.35
2022-12-18T10:10:28.053Z,19.80
2022-12-18T10:13:32.059Z,20.52
2022-12-18T10:16:25.027Z,20.30
2022-12-18T10:19:00.569Z,18.70
2022-12-18T10:21:39.518Z,19.63
2022-12-18T10:24:12.113Z,19.80
2022-12-18T10:26:38.675Z,20.00
2022-12-18T10:29:13.080Z,21.65
2022-12-18T10:31:39.778Z,20.67
2022-12-18T10:34:13.267Z,20.17
2022-12-18T10:36:40.127Z,19.27
2022-12-18T10:39:23.691Z,19.67
2022-12-18T10:41:50.177Z,18.52
2022-12-18T10:44:22.471Z,22.02
2022-12-18T10:46:57.149Z,21.00
2022-12-18T10:49:27.950Z,19.15
2022-12-18T10:52:23.890Z,20.88
2022-12-18T10:54:53.998Z,19.92
2022-12-18T10:57:41.465Z,20.15
2022-12-18T11:00:31.308Z,20.20
2022-12-18T11:02:58.595Z,18.98
2022-12-18T11:05:30.291Z,20.35
2022-12-18T11:07:57.525Z,19.35
2022-12-18T11:10:31.138Z,18.67
2022-12-18T11:13:11.101Z,18.60
2022-12-18T11:15:38.051Z,17.40
2022-12-18T11:18:04.956Z,21.00
2022-12-18T11:20:37.020Z,20.50
2022-12-18T11:23:14.010Z,18.73
2022-12-18T11:25:42.800Z,19.63
2022-12-18T11:28:39.217Z,21.40
2022-12-18T11:31:28.775Z,20.13
2022-12-18T11:34:31.796Z,18.50
2022-12-18T11:36:49.619Z,20.58
2022-12-18T11:39:25.240Z,19.67
2022-12-18T11:42:12.804Z,20.15
2022-12-18T11:44:59.207Z,18.20
2022-12-18T11:48:02.492Z,19.67
2022-12-18T11:50:43.734Z,18.13
2022-12-18T11:53:12.314Z,19.58
2022-12-18T11:56:17.660Z,18.05
2022-12-18T11:58:54.193Z,18.70
2022-12-18T12:01:43.576Z,18.92
2022-12-18T12:04:29.543Z,19.42
2022-12-18T12:07:05.121Z,16.88
2022-12-18T12:09:50.081Z,18.23
2022-12-18T12:12:52.723Z,17.58
2022-12-18T12:15:22.031Z,17.80
2022-12-18T12:18:03.869Z,18.55
2022-12-18T12:20:53.608Z,18.92
2022-12-18T12:23:41.333Z,18.27
2022-12-18T12:26:32.786Z,18.05
2022-12-18T12:29:21.129Z,18.40
2022-12-18T12:32:12.762Z,18.15
2022-12-18T12:35:15.493Z,17.73
2022-12-18T12:38:00.348Z,17.77
2022-12-18T12:43:26.697Z,17.63
2022-12-18T12:46:10.899Z,18.27
2022-12-18T12:48:47.750Z,17.20
2022-12-18T12:51:29.122Z,18.85
2022-12-18T12:53:58.059Z,17.58
2022-12-18T12:56:31.861Z,18.42
2022-12-18T12:59:14.760Z,17.15
2022-12-18T13:02:24.021Z,17.90
2022-12-18T13:05:14.622Z,16.58
2022-12-18T13:07:54.178Z,16.30
2022-12-18T13:10:32.209Z,18.48
2022-12-18T13:13:05.387Z,18.05
2022-12-18T13:15:46.200Z,16.27
2022-12-18T13:18:25.094Z,19.63
2022-12-18T13:21:12.237Z,18.77
2022-12-18T13:23:40.791Z,16.92
2022-12-18T13:26:07.673Z,18.73
2022-12-18T13:28:37.090Z,17.88
2022-12-18T13:31:04.571Z,17.15
2022-12-18T13:33:31.090Z,17.48
2022-12-18T13:36:28.300Z,16.95
2022-12-18T13:39:11.775Z,18.95
2022-12-18T13:41:38.920Z,16.98
2022-12-18T13:44:18.356Z,18.17
2022-12-18T13:46:47.253Z,17.23
2022-12-18T13:49:14.089Z,16.90
2022-12-18T13:51:43.520Z,15.50
2022-12-18T13:54:33.464Z,19.17
2022-12-18T13:57:00.019Z,18.60
2022-12-18T13:59:47.634Z,17.15
2022-12-18T14:02:17.828Z,16.95
2022-12-18T14:04:48.526Z,17.67
2022-12-18T14:07:18.256Z,20.05
2022-12-18T14:09:55.632Z,20.55
2022-12-18T14:12:50.899Z,18.83
2022-12-18T14:15:34.752Z,18.80
2022-12-18T14:18:18.559Z,19.58
2022-12-18T14:20:50.756Z,18.13
2022-12-18T14:23:33.244Z,19.63
2022-12-18T14:26:05.503Z,18.95
2022-12-18T14:28:33.036Z,17.08
2022-12-18T14:30:59.779Z,17.75
2022-12-18T14:33:28.540Z,17.50
2022-12-18T14:36:03.792Z,18.58
2022-12-18T14:38:35.724Z,18.33
2022-12-18T14:41:22.550Z,17.63
2022-12-18T14:43:51.569Z,17.98
2022-12-18T14:46:31.040Z,17.02
2022-12-18T14:48:58.447Z,17.20
2022-12-18T14:51:30.648Z,16.33
2022-12-18T14:54:09.162Z,16.70
2022-12-18T14:56:37.961Z,16.33
2022-12-18T14:59:22.342Z,16.88
2022-12-18T15:02:00.729Z,15.60
2022-12-18T15:04:35.639Z,16.13
2022-12-18T15:07:20.744Z,16.08
2022-12-18T15:10:02.610Z,16.27
2022-12-18T15:12:49.226Z,18.15
2022-12-18T15:15:33.721Z,17.42
2022-12-18T15:18:07.733Z,15.82
2022-12-18T15:20:41.828Z,17.33
2022-12-18T15:23:28.711Z,16.45
2022-12-18T15:26:02.487Z,15.00
2022-12-18T15:28:28.980Z,16.63
2022-12-18T15:31:07.425Z,16.02
2022-12-18T15:33:39.719Z,15.13
2022-12-18T15:36:11.983Z,15.00
2022-12-18T15:38:38.616Z,14.25
2022-12-18T15:41:08.895Z,15.63
2022-12-18T15:43:39.362Z,16.15
2022-12-18T15:46:16.520Z,15.68
2022-12-18T15:48:50.158Z,15.05
2022-12-18T15:51:21.216Z,14.88
2022-12-18T15:53:49.677Z,14.60
2022-12-18T15:56:35.889Z,16.45
2022-12-18T15:59:03.413Z,14.82
2022-12-18T16:01:32.257Z,15.20
2022-12-18T16:03:58.916Z,15.98
2022-12-18T16:06:25.743Z,17.27
2022-12-18T16:08:52.233Z,15.85
2022-12-18T16:11:39.135Z,15.50
2022-12-18T16:14:27.573Z,16.83
2022-12-18T16:16:56.261Z,16.08
2022-12-18T16:19:23.582Z,15.20
2022-12-18T16:21:52.134Z,16.05
2022-12-18T16:24:22.910Z,16.48
2022-12-18T16:26:52.261Z,16.50
2022-12-18T16:29:19.829Z,17.33
2022-12-18T16:31:47.642Z,15.30
2022-12-18T16:34:26.740Z,15.25
2022-12-18T16:37:05.758Z,15.73
2022-12-18T16:39:35.085Z,16.63
2022-12-18T16:42:15.558Z,14.77
2022-12-18T16:44:42.406Z,16.15
2022-12-18T16:47:09.662Z,16.35
2022-12-18T16:49:37.915Z,16.35
2022-12-18T16:52:06.357Z,16.50
2022-12-18T16:54:35.076Z,16.92
2022-12-18T16:57:01.610Z,15.52
2022-12-18T16:59:29.210Z,16.55
2022-12-18T17:01:57.468Z,17.20
2022-12-18T17:04:24.186Z,15.77
2022-12-18T17:06:52.164Z,18.23
2022-12-18T17:09:23.782Z,17.35
2022-12-18T17:11:50.258Z,17.73
2022-12-18T17:14:19.764Z,17.67
2022-12-18T17:16:47.180Z,17.02
2022-12-18T17:19:17.466Z,16.63
2022-12-18T17:21:45.660Z,17.50
2022-12-18T17:24:12.253Z,16.30
2022-12-18T17:26:38.934Z,16.80
2022-12-18T17:29:05.638Z,17.48
2022-12-18T17:31:33.240Z,16.45
2022-12-18T17:34:02.999Z,16.63
2022-12-18T17:36:31.145Z,17.13
2022-12-18T17:39:00.036Z,17.50
2022-12-18T17:41:28.088Z,19.23
2022-12-18T17:43:59.706Z,17.98
2022-12-18T17:46:27.637Z,16.75
2022-12-18T17:49:01.497Z,18.15
2022-12-18T17:51:28.987Z,19.13
2022-12-18T17:53:55.497Z,17.27
2022-12-18T17:56:23.980Z,19.88
2022-12-18T17:58:50.950Z,20.80
2022-12-18T18:01:23.585Z,18.98
2022-12-18T18:03:53.751Z,15.63
2022-12-18T18:06:20.932Z,19.17
2022-12-18T18:08:48.010Z,18.55
2022-12-18T18:11:36.293Z,19.25
2022-12-18T18:14:06.201Z,19.83
2022-12-18T18:16:38.271Z,19.85
2022-12-18T18:19:13.960Z,20.67
2022-12-18T18:21:42.960Z,19.67
2022-12-18T18:24:11.377Z,20.30
2022-12-18T18:26:38.653Z,21.17
2022-12-18T18:29:07.183Z,22.05
2022-12-18T18:31:40.340Z,20.38
2022-12-18T18:34:08.094Z,20.63
2022-12-18T18:36:34.712Z,20.45
2022-12-18T18:39:01.906Z,21.08
2022-12-18T18:41:29.969Z,22.23
2022-12-18T18:43:58.025Z,23.13
2022-12-18T18:46:25.114Z,21.55
2022-12-18T18:48:51.981Z,21.42
2022-12-18T18:51:21.693Z,23.52
2022-12-18T18:53:50.376Z,22.60
2022-12-18T18:56:50.196Z,21.92
2022-12-18T18:59:06.363Z,21.67
2022-12-18T19:01:33.138Z,22.75
2022-12-18T19:04:01.070Z,21.40
2022-12-18T19:06:28.541Z,22.85
2022-12-18T19:08:57.212Z,22.60
2022-12-18T19:11:44.228Z,22.23
2022-12-18T19:14:12.892Z,22.02
2022-12-18T19:16:39.825Z,21.50
2022-12-18T19:19:06.733Z,23.77
2022-12-18T19:21:34.689Z,23.10
2022-12-18T19:24:02.679Z,25.42
2022-12-18T19:26:29.704Z,24.10
2022-12-18T19:29:07.070Z,24.20
2022-12-18T19:31:36.496Z,24.02
2022-12-18T19:34:06.716Z,22.98
2022-12-18T19:36:35.197Z,24.85
2022-12-18T19:39:07.085Z,23.02
2022-12-18T19:41:33.989Z,22.90
2022-12-18T19:44:08.267Z,22.27
2022-12-18T19:49:01.480Z,22.60
2022-12-18T19:51:29.674Z,22.75
2022-12-18T19:53:59.404Z,22.92
2022-12-18T19:56:31.037Z,25.58
2022-12-18T19:58:57.951Z,25.05
2022-12-18T20:01:25.995Z,26.83
2022-12-18T20:03:55.273Z,24.00
2022-12-18T20:06:31.424Z,24.10
2022-12-18T20:09:04.569Z,24.77
2022-12-18T20:11:32.653Z,24.17
2022-12-18T20:13:59.231Z,24.85
2022-12-18T20:16:25.857Z,25.40
2022-12-18T20:18:53.243Z,25.77
2022-12-18T20:21:19.893Z,27.58
2022-12-18T20:23:46.367Z,25.63
2022-12-18T20:26:13.182Z,25.48
2022-12-18T20:28:40.744Z,25.40
2022-12-18T20:31:10.504Z,26.08
2022-12-18T20:33:40.450Z,27.15
2022-12-18T20:36:12.386Z,28.48
2022-12-18T20:38:39.660Z,26.77
2022-12-18T20:41:09.949Z,26.08
2022-12-18T20:43:36.787Z,27.65
2022-12-18T20:46:05.947Z,29.05
2022-12-18T20:48:33.509Z,26.17
2022-12-18T20:51:06.221Z,24.92
2022-12-18T20:53:33.987Z,22.47
2022-12-18T20:56:02.203Z,26.83
2022-12-18T20:58:28.777Z,25.77
2022-12-18T21:01:06.355Z,27.63
2022-12-18T21:03:33.530Z,27.05
2022-12-18T21:06:00.039Z,26.70
2022-12-18T21:08:26.518Z,27.30
2022-12-18T21:10:53.356Z,28.25
2022-12-18T21:13:22.495Z,27.58
2022-12-18T21:15:48.988Z,27.38
2022-12-18T21:18:15.415Z,29.80
2022-12-18T21:20:42.202Z,28.85
2022-12-18T21:23:16.314Z,28.33
2022-12-18T21:25:44.419Z,27.65
2022-12-18T21:28:12.310Z,26.85
2022-12-18T21:30:38.915Z,28.63
2022-12-18T21:33:05.494Z,27.45
2022-12-18T21:35:32.171Z,27.88
2022-12-18T21:37:58.860Z,26.13
2022-12-18T21:40:25.358Z,26.83
2022-12-18T21:43:30.321Z,27.35
2022-12-18T21:45:56.791Z,26.52
2022-12-18T21:48:25.134Z,28.55
2022-12-18T21:50:51.657Z,27.10
2022-12-18T21:53:18.097Z,27.23
2022-12-18T21:55:44.566Z,26.90
2022-12-18T21:58:11.012Z,27.70
2022-12-18T22:00:37.477Z,26.30
2022-12-18T22:03:18.703Z,28.45
2022-12-18T22:05:45.929Z,27.40
2022-12-18T22:08:15.007Z,28.35
2022-12-18T22:10:41.722Z,28.77
2022-12-18T22:13:08.298Z,27.85
2022-12-18T22:15:34.805Z,26.88
2022-12-18T22:18:01.337Z,27.45
2022-12-18T22:20:30.106Z,25.77
2022-12-18T22:22:56.964Z,27.63
2022-12-18T22:25:23.443Z,28.08
2022-12-18T22:28:08.394Z,28.70
2022-12-18T22:30:35.491Z,25.00
2022-12-18T22:33:02.475Z,28.58
2022-12-18T22:35:28.978Z,26.48
2022-12-18T22:37:55.438Z,27.25
2022-12-18T22:40:27.057Z,26.52
2022-12-18T22:42:54.514Z,26.55
2022-12-18T22:45:21.131Z,24.88
2022-12-18T22:47:47.785Z,26.35
2022-12-18T22:50:14.702Z,26.30
2022-12-18T22:52:41.437Z,26.45
2022-12-18T22:55:08.521Z,25.17
2022-12-18T22:57:35.243Z,26.98
2022-12-18T23:00:03.697Z,24.75
2022-12-18T23:02:30.320Z,25.75
2022-12-18T23:04:56.887Z,26.40
2022-12-18T23:07:23.414Z,28.08
2022-12-18T23:09:51.385Z,26.83
2022-12-18T23:12:27.399Z,25.27
2022-12-18T23:14:54.158Z,26.15
2022-12-18T23:17:20.637Z,24.67
2022-12-18T23:19:49.229Z,26.27
2022-12-18T23:22:16.935Z,25.55
2022-12-18T23:24:43.407Z,25.30
2022-12-18T23:27:11.690Z,25.77
2022-12-18T23:29:39.609Z,25.13
2022-12-18T23:32:06.167Z,27.08
2022-12-18T23:34:32.695Z,24.42
2022-12-18T23:36:59.220Z,25.00
2022-12-18T23:39:29.673Z,25.85
2022-12-18T23:42:00.395Z,24.80
2022-12-18T23:44:27.594Z,25.15
2022-12-18T23:46:54.504Z,23.73
2022-12-18T23:49:21.084Z,25.35
2022-12-18T23:51:47.774Z,24.92
2022-12-18T23:54:14.276Z,24.38
2022-12-18T23:56:40.919Z,25.58
2022-12-18T23:59:07.415Z,26.30
